Time;durP1;ratioP1;P1;durP2;ratioP2;P2;SDS_P1;SDS_P2;PMS_P1;PMS_P2;Temp;Humidity;BMP_temperature;BMP_pressure;BME280_temperature;BME280_humidity;BME280_pressure;Samples;Min_cycle;Max_cycle;Signal;HPM_P1;HPM_P2
2022/01/25 00:30:10;;;;;;;17.23;8.27;;;;;;;0.15;100.00;101430.00;12277647;19;20595;-85
2022/01/25 00:34:11;;;;;;;16.13;7.43;;;;;;;0.07;100.00;101433.47;12276876;19;20014;-86
2022/01/25 00:38:13;;;;;;;19.38;8.25;;;;;;;0.05;100.00;101429.16;12267132;19;20025;-85
2022/01/25 00:42:15;;;;;;;18.63;8.48;;;;;;;0.05;100.00;101426.47;12259399;19;20017;-85
2022/01/25 00:46:20;;;;;;;23.90;9.00;;;;;;;0.06;100.00;101420.03;12265268;19;20010;-85
2022/01/25 00:50:22;;;;;;;19.35;8.38;;;;;;;0.07;100.00;101421.75;12271370;19;20006;-85
2022/01/25 00:54:32;;;;;;;17.05;8.32;;;;;;;0.06;100.00;101417.31;12267288;19;20100;-84
2022/01/25 00:58:34;;;;;;;16.85;7.75;;;;;;;0.05;100.00;101423.75;12264044;19;20014;-86
2022/01/25 01:02:36;;;;;;;18.73;7.60;;;;;;;-0.02;100.00;101428.88;12267702;19;20010;-85
2022/01/25 01:06:41;;;;;;;18.83;7.20;;;;;;;-0.08;100.00;101421.31;12264538;19;20015;-85
2022/01/25 01:10:43;;;;;;;17.35;8.20;;;;;;;-0.15;100.00;101418.34;12275239;19;20014;-85
2022/01/25 01:33:04;;;;;;;19.65;9.00;;;;;;;-0.31;100.00;101428.84;12248198;19;20021;-85
2022/01/25 01:41:33;;;;;;;17.63;7.43;;;;;;;-0.29;100.00;101422.28;12247073;19;20018;-85
2022/01/25 01:45:59;;;;;;;19.70;7.82;;;;;;;-0.29;100.00;101421.44;12252750;19;20108;-85
2022/01/25 01:50:02;;;;;;;17.83;7.93;;;;;;;-0.32;100.00;101413.59;12244647;19;20015;-85
2022/01/25 01:54:11;;;;;;;20.98;8.48;;;;;;;-0.34;100.00;101421.00;12249801;19;22178;-85
2022/01/25 01:58:14;;;;;;;19.48;7.65;;;;;;;-0.36;100.00;101417.56;12253459;19;20026;-84
2022/01/25 02:02:16;;;;;;;21.33;8.55;;;;;;;-0.42;100.00;101408.13;12250199;19;20006;-85
2022/01/25 02:06:18;;;;;;;18.60;8.30;;;;;;;-0.51;100.00;101409.81;12254513;19;20003;-85
2022/01/25 02:10:20;;;;;;;17.45;7.43;;;;;;;-0.53;100.00;101406.41;12255509;19;20010;-85
2022/01/25 02:14:22;;;;;;;19.85;7.43;;;;;;;-0.55;100.00;101407.56;12252489;19;20512;-83
2022/01/25 02:22:44;;;;;;;17.05;8.55;;;;;;;-0.65;100.00;101399.41;12245972;19;20034;-84
2022/01/25 02:26:46;;;;;;;18.95;7.57;;;;;;;-0.69;100.00;101395.25;12249102;19;20082;-84
2022/01/25 02:30:49;;;;;;;17.27;7.03;;;;;;;-0.72;100.00;101396.38;12248014;19;20072;-84
2022/01/25 02:34:51;;;;;;;17.80;7.82;;;;;;;-0.74;100.00;101401.09;12250851;19;20013;-84
2022/01/25 02:38:53;;;;;;;15.48;6.68;;;;;;;-0.80;100.00;101406.22;12244241;19;20027;-84
2022/01/25 02:42:56;;;;;;;14.65;7.45;;;;;;;-0.83;100.00;101410.03;12243889;19;20019;-85
2022/01/25 02:51:03;;;;;;;17.17;6.47;;;;;;;-0.86;100.00;101412.13;12252717;19;20088;-86
2022/01/25 02:55:05;;;;;;;17.80;7.35;;;;;;;-0.89;100.00;101412.41;12254035;19;20014;-85
2022/01/25 02:59:07;;;;;;;15.65;6.50;;;;;;;-0.92;100.00;101406.28;12245833;19;20070;-85
2022/01/25 03:03:09;;;;;;;23.92;7.90;;;;;;;-0.96;100.00;101415.66;12253561;19;20040;-85
2022/01/25 03:07:11;;;;;;;17.60;7.57;;;;;;;-1.01;100.00;101415.22;12256277;19;20006;-85
2022/01/25 03:11:13;;;;;;;19.20;8.38;;;;;;;-1.04;100.00;101407.38;12255606;19;20026;-84
2022/01/25 03:23:34;;;;;;;18.60;6.95;;;;;;;-1.12;100.00;101396.38;12255005;19;20003;-86
2022/01/25 03:27:36;;;;;;;16.90;7.10;;;;;;;-1.14;100.00;101392.94;12250481;19;20045;-84
2022/01/25 03:31:38;;;;;;;12.52;6.65;;;;;;;-1.16;100.00;101394.91;12251773;19;20010;-85
2022/01/25 03:35:40;;;;;;;21.38;7.00;;;;;;;-1.17;100.00;101402.19;12254435;19;20069;-84
2022/01/25 03:39:42;;;;;;;14.13;8.05;;;;;;;-1.18;100.00;101394.22;12258134;19;20076;-86
2022/01/25 03:43:51;;;;;;;16.20;6.47;;;;;;;-1.20;100.00;101390.78;12254620;19;20022;-85
2022/01/25 03:52:13;;;;;;;16.13;6.82;;;;;;;-1.29;100.00;101394.28;12258624;19;20014;-85
2022/01/25 03:56:15;;;;;;;14.00;6.55;;;;;;;-1.32;100.00;101397.25;12268185;19;20027;-86
2022/01/25 04:00:17;;;;;;;14.00;6.60;;;;;;;-1.36;100.00;101401.25;12270930;19;20014;-85
2022/01/25 04:04:22;;;;;;;18.02;7.95;;;;;;;-1.39;100.00;101399.66;12266068;19;20025;-86
2022/01/25 04:08:24;;;;;;;16.35;6.93;;;;;;;-1.40;100.00;101390.69;12266349;19;20013;-86
2022/01/25 04:12:28;;;;;;;16.98;6.90;;;;;;;-1.39;100.00;101380.72;12268737;19;20018;-85
2022/01/25 04:16:35;;;;;;;17.25;6.90;;;;;;;-1.39;100.00;101389.69;12267647;19;20038;-86
2022/01/25 04:20:38;;;;;;;18.20;7.38;;;;;;;-1.40;100.00;101388.00;12257508;19;20011;-83
2022/01/25 04:25:03;;;;;;;17.70;7.75;;;;;;;-1.41;100.00;101380.00;12275931;19;20017;-84
2022/01/25 04:29:05;;;;;;;14.02;6.63;;;;;;;-1.44;100.00;101389.22;12270125;19;20216;-84
2022/01/25 04:33:19;;;;;;;18.00;7.17;;;;;;;-1.43;100.00;101390.06;12276214;19;20546;-85
2022/01/25 04:50:49;;;;;;;21.00;7.60;;;;;;;-1.52;100.00;101386.31;12258861;19;20039;-86
2022/01/25 04:54:55;;;;;;;15.60;7.23;;;;;;;-1.49;100.00;101396.88;12266329;19;20035;-84
2022/01/25 04:59:06;;;;;;;19.17;9.18;;;;;;;-1.47;100.00;101400.31;12269307;19;20635;-85
2022/01/25 05:03:12;;;;;;;20.15;9.75;;;;;;;-1.47;100.00;101397.59;12266338;19;19999;-84
2022/01/25 05:11:39;;;;;;;19.23;10.05;;;;;;;-1.42;100.00;101391.81;12252315;19;20023;-86
2022/01/25 05:23:50;;;;;;;27.05;11.00;;;;;;;-1.40;100.00;101390.69;12263805;19;20006;-86
2022/01/25 05:27:51;;;;;;;23.33;10.70;;;;;;;-1.40;100.00;101379.88;12265301;19;20296;-86
2022/01/25 05:31:58;;;;;;;22.23;10.48;;;;;;;-1.40;100.00;101388.00;12260739;19;20531;-86
2022/01/25 05:35:59;;;;;;;22.83;10.05;;;;;;;-1.41;100.00;101380.84;12263388;19;20007;-86
2022/01/25 05:40:01;;;;;;;24.75;11.15;;;;;;;-1.41;100.00;101385.41;12254406;19;20363;-84
2022/01/25 05:48:14;;;;;;;23.25;11.02;;;;;;;-1.40;100.00;101387.09;12250497;19;20070;-85
2022/01/25 05:52:16;;;;;;;25.67;10.57;;;;;;;-1.40;100.00;101392.50;12234177;19;20062;-86
2022/01/25 05:56:18;;;;;;;26.40;10.80;;;;;;;-1.48;100.00;101398.59;12243113;19;20010;-82
2022/01/25 06:00:20;;;;;;;28.30;10.45;;;;;;;-1.59;100.00;101395.97;12241137;19;20078;-81
2022/01/25 06:04:23;;;;;;;25.30;11.33;;;;;;;-1.69;100.00;101401.31;12219563;19;20017;-83
2022/01/25 06:08:25;;;;;;;26.17;10.95;;;;;;;-1.76;100.00;101405.50;12251641;19;20465;-83
2022/01/25 06:12:27;;;;;;;27.50;11.90;;;;;;;-1.84;100.00;101414.28;12244822;19;20078;-83
2022/01/25 06:16:28;;;;;;;28.10;10.90;;;;;;;-1.92;100.00;101416.78;12244057;19;20502;-84
2022/01/25 06:20:32;;;;;;;22.80;9.90;;;;;;;-1.98;100.00;101403.78;12246573;19;20026;-84
2022/01/25 06:24:34;;;;;;;22.35;9.77;;;;;;;-1.93;100.00;101415.06;12244232;19;20472;-82
2022/01/25 06:28:35;;;;;;;18.48;7.55;;;;;;;-1.94;100.00;101407.09;12240288;19;20007;-84
2022/01/25 06:32:37;;;;;;;16.40;8.50;;;;;;;-1.93;100.00;101408.81;12231362;19;20491;-84
2022/01/25 06:36:42;;;;;;;22.77;9.45;;;;;;;-1.91;100.00;101404.13;12241268;19;20002;-84
2022/01/25 06:40:43;;;;;;;15.65;7.47;;;;;;;-1.78;100.00;101395.84;12234362;19;20084;-84
2022/01/25 06:44:45;;;;;;;21.70;9.52;;;;;;;-1.59;100.00;101404.06;12233434;19;20764;-85
2022/01/25 06:48:46;;;;;;;24.98;10.95;;;;;;;-1.42;100.00;101414.28;12235827;19;20534;-85
2022/01/25 06:52:48;;;;;;;21.50;10.27;;;;;;;-1.27;100.00;101414.81;12236095;19;20007;-84
2022/01/25 06:57:10;;;;;;;26.30;10.43;;;;;;;-1.13;100.00;101413.63;12238343;19;20011;-83
2022/01/25 07:01:11;;;;;;;25.77;10.32;;;;;;;-1.05;100.00;101413.78;12243014;19;20002;-85
2022/01/25 07:05:14;;;;;;;28.60;11.93;;;;;;;-1.00;100.00;101411.53;12232990;19;20010;-84
2022/01/25 07:09:15;;;;;;;33.27;12.70;;;;;;;-1.00;100.00;101414.22;12237991;19;20014;-84
2022/01/25 07:13:17;;;;;;;25.98;11.40;;;;;;;-1.03;100.00;101417.22;12230194;19;20390;-84
2022/01/25 07:17:19;;;;;;;31.13;12.25;;;;;;;-1.08;100.00;101415.91;12181458;19;20043;-84
2022/01/25 07:21:20;;;;;;;26.87;11.83;;;;;;;-1.17;100.00;101407.59;12230204;19;20460;-84
2022/01/25 07:25:22;;;;;;;32.25;12.70;;;;;;;-1.25;100.00;101410.13;12231847;19;20011;-84
2022/01/25 07:29:24;;;;;;;27.35;11.25;;;;;;;-1.32;100.00;101408.09;12234679;19;20507;-85
2022/01/25 07:33:26;;;;;;;25.10;12.80;;;;;;;-1.38;100.00;101407.63;12229575;19;20014;-84
2022/01/25 07:37:30;;;;;;;28.73;13.48;;;;;;;-1.42;100.00;101398.06;12228264;19;20002;-84
2022/01/25 07:41:32;;;;;;;35.25;13.38;;;;;;;-1.47;100.00;101392.19;12229230;19;20469;-83
2022/01/25 07:45:37;;;;;;;22.02;10.05;;;;;;;-1.60;100.00;101399.66;12230341;19;20007;-84
2022/01/25 07:49:41;;;;;;;24.02;11.50;;;;;;;-1.74;100.00;101383.78;12231611;19;20599;-84
2022/01/25 07:53:48;;;;;;;31.98;11.93;;;;;;;-1.78;100.00;101398.56;12233269;19;20010;-83
2022/01/25 07:57:49;;;;;;;25.33;11.27;;;;;;;-1.73;100.00;101404.41;12237479;19;20023;-84
2022/01/25 08:01:51;;;;;;;27.40;10.85;;;;;;;-1.74;100.00;101416.19;12231677;19;20431;-84
2022/01/25 08:06:00;;;;;;;28.85;13.32;;;;;;;-1.77;100.00;101414.63;12231047;19;20011;-83
2022/01/25 08:10:16;;;;;;;28.10;10.75;;;;;;;-1.54;100.00;101411.81;12259863;19;20021;-85
2022/01/25 08:14:25;;;;;;;24.38;10.32;;;;;;;-1.27;100.00;101411.25;12252043;19;20011;-83
2022/01/25 08:18:32;;;;;;;30.42;12.20;;;;;;;-1.04;100.00;101417.31;12267437;19;20025;-82
2022/01/25 08:22:57;;;;;;;84.03;16.67;;;;;;;-0.83;100.00;101430.81;12264377;19;20027;-84
2022/01/25 08:27:14;;;;;;;28.30;12.75;;;;;;;-0.72;100.00;101428.00;12242573;19;20390;-84
2022/01/25 08:31:39;;;;;;;113.82;18.80;;;;;;;-0.69;100.00;101438.56;12243442;19;20015;-84
2022/01/25 08:36:01;;;;;;;83.68;16.52;;;;;;;-0.62;100.00;101445.16;12242406;19;20014;-83
2022/01/25 08:40:17;;;;;;;37.08;12.85;;;;;;;-0.56;100.00;101443.75;12249094;19;20018;-84
2022/01/25 08:44:29;;;;;;;94.85;17.35;;;;;;;-0.52;100.00;101456.88;12248470;19;20010;-83
2022/01/25 08:48:45;;;;;;;49.20;15.45;;;;;;;-0.64;100.00;101452.56;12248548;19;20004;-84
2022/01/25 08:52:55;;;;;;;57.78;15.98;;;;;;;-0.57;100.00;101471.81;12238578;19;20807;-83
2022/01/25 08:57:13;;;;;;;50.75;15.88;;;;;;;-0.49;100.00;101477.41;12245604;19;20009;-84
2022/01/25 09:01:40;;;;;;;110.25;16.50;;;;;;;-0.40;100.00;101476.56;12241808;19;20013;-83
2022/01/25 09:05:43;;;;;;;44.27;15.60;;;;;;;-0.54;100.00;101480.50;12241635;19;20025;-84
2022/01/25 09:09:45;;;;;;;49.03;12.17;;;;;;;-0.60;100.00;101477.50;12247724;19;20434;-84
2022/01/25 09:13:46;;;;;;;66.53;16.17;;;;;;;-0.55;100.00;101472.53;12240499;19;20018;-84
2022/01/25 09:17:49;;;;;;;56.40;15.48;;;;;;;-0.47;100.00;101473.56;12246513;19;20544;-84
2022/01/25 09:21:51;;;;;;;65.50;16.13;;;;;;;-0.42;100.00;101473.13;12266386;19;21262;-84
2022/01/25 09:25:53;;;;;;;93.72;15.52;;;;;;;-0.34;100.00;101472.47;12288048;19;20063;-84
2022/01/25 09:29:54;;;;;;;36.97;12.17;;;;;;;-0.19;100.00;101471.06;12259141;19;20105;-85
2022/01/25 09:33:57;;;;;;;54.15;14.65;;;;;;;-0.07;100.00;101480.78;12234067;19;20038;-84
2022/01/25 09:37:59;;;;;;;38.33;13.52;;;;;;;0.01;100.00;101477.38;12243525;19;20022;-85
2022/01/25 09:42:03;;;;;;;65.10;15.80;;;;;;;0.11;100.00;101489.09;12250898;19;20010;-84
2022/01/25 09:46:05;;;;;;;77.20;17.42;;;;;;;0.08;100.00;101491.22;12242140;19;20003;-83
2022/01/25 09:50:07;;;;;;;89.80;18.98;;;;;;;0.12;100.00;101498.06;12240435;19;20471;-83
2022/01/25 09:54:09;;;;;;;38.20;14.40;;;;;;;0.20;100.00;101495.53;12242632;19;20103;-84
2022/01/25 09:58:15;;;;;;;68.68;17.85;;;;;;;0.20;100.00;101484.69;12240642;19;20014;-83
2022/01/25 10:02:58;;;;;;;62.42;18.42;;;;;;;0.26;100.00;101481.41;12237518;19;19999;-83
2022/01/25 10:07:01;;;;;;;38.83;15.27;;;;;;;0.26;100.00;101492.25;12232971;19;20006;-83
2022/01/25 10:11:15;;;;;;;67.55;17.48;;;;;;;0.33;100.00;101489.84;12228096;19;20460;-83
2022/01/25 10:15:16;;;;;;;60.22;18.08;;;;;;;0.45;100.00;101484.13;12230611;19;20039;-82
2022/01/25 10:19:41;;;;;;;46.40;17.45;;;;;;;0.62;100.00;101495.25;12234822;19;20011;-84
2022/01/25 10:24:08;;;;;;;70.40;19.27;;;;;;;0.63;100.00;101497.81;12214225;19;20401;-83
2022/01/25 10:28:12;;;;;;;96.70;17.05;;;;;;;0.66;100.00;101489.41;12233284;19;20002;-83
2022/01/25 10:32:15;;;;;;;91.60;16.38;;;;;;;0.75;100.00;101486.81;12235165;19;20010;-84
2022/01/25 10:36:19;;;;;;;76.85;15.77;;;;;;;0.82;100.00;101485.22;12230164;19;20070;-84
2022/01/25 10:40:37;;;;;;;37.70;14.15;;;;;;;0.92;100.00;101488.75;12237011;19;20086;-83
2022/01/25 10:44:49;;;;;;;46.05;15.80;;;;;;;0.94;100.00;101473.19;12243264;19;20011;-84
2022/01/25 10:48:52;;;;;;;52.53;16.48;;;;;;;1.08;100.00;101474.59;12240095;19;20745;-83
2022/01/25 10:53:08;;;;;;;77.40;16.80;;;;;;;1.09;100.00;101476.31;12234643;19;20002;-84
2022/01/25 10:57:20;;;;;;;70.65;16.92;;;;;;;1.08;100.00;101475.44;12239617;19;20054;-84
2022/01/25 11:01:36;;;;;;;;;;;;;;;1.16;100.00;101476.56;12235882;19;20019;-85
2022/01/25 11:05:41;;;;;;;41.92;11.52;;;;;;;1.21;100.00;101477.84;12240960;19;19911;-84
2022/01/25 11:09:50;;;;;;;39.95;11.88;;;;;;;1.37;100.00;101477.22;12246908;19;20010;-85
2022/01/25 11:13:54;;;;;;;56.10;13.70;;;;;;;1.42;100.00;101477.59;12242337;19;20030;-84
2022/01/25 11:17:56;;;;;;;21.48;9.45;;;;;;;1.44;100.00;101477.47;12240010;19;20010;-84
2022/01/25 11:21:59;;;;;;;31.70;10.57;;;;;;;1.46;100.00;101486.31;12247254;19;20014;-84
2022/01/25 11:26:03;;;;;;;57.40;16.05;;;;;;;1.36;100.00;101481.78;12241267;19;20010;-83
2022/01/25 11:30:11;;;;;;;37.55;11.70;;;;;;;1.41;100.00;101480.50;12233346;19;20014;-84
2022/01/25 11:34:14;;;;;;;114.28;16.02;;;;;;;1.51;100.00;101478.56;12231026;19;20030;-84
2022/01/25 11:38:31;;;;;;;45.40;14.50;;;;;;;1.37;100.00;101474.50;12230405;19;20028;-84
2022/01/25 11:42:36;;;;;;;72.07;16.83;;;;;;;1.36;100.00;101467.34;12222849;19;20006;-84
2022/01/25 11:46:41;;;;;;;52.13;16.42;;;;;;;1.33;100.00;101473.06;12223387;19;20010;-84
2022/01/25 11:50:43;;;;;;;44.95;13.18;;;;;;;1.30;100.00;101467.94;12232463;19;20007;-85
2022/01/25 11:54:46;;;;;;;44.08;17.15;;;;;;;1.25;100.00;101467.53;12230256;19;20032;-84
2022/01/25 11:58:56;;;;;;;37.47;13.47;;;;;;;1.41;100.00;101466.91;12228874;19;20047;-84
2022/01/25 12:03:01;;;;;;;36.85;12.27;;;;;;;1.49;100.00;101454.28;12233760;19;20002;-84
2022/01/25 12:07:23;;;;;;;71.57;20.63;;;;;;;1.39;100.00;101455.31;12217028;19;20026;-84
2022/01/25 12:11:41;;;;;;;33.85;13.27;;;;;;;1.41;100.00;101450.63;12226390;19;20013;-84
2022/01/25 12:15:44;;;;;;;105.00;16.70;;;;;;;1.58;100.00;101456.09;12232491;19;20037;-84
2022/01/25 12:19:49;;;;;;;68.20;17.58;;;;;;;1.46;100.00;101457.31;12235976;19;20125;-84
2022/01/25 12:24:14;;;;;;;40.72;14.65;;;;;;;1.54;100.00;101454.66;12237258;19;20006;-84
2022/01/25 12:28:29;;;;;;;47.63;16.77;;;;;;;1.75;100.00;101450.84;12233185;19;20022;-84
2022/01/25 12:32:36;;;;;;;78.00;20.88;;;;;;;1.85;100.00;101451.66;12236389;19;20046;-85
2022/01/25 12:36:43;;;;;;;127.80;23.98;;;;;;;1.83;100.00;101443.63;12234706;19;20393;-84
2022/01/25 12:40:56;;;;;;;48.42;16.98;;;;;;;1.93;100.00;101443.56;12239091;19;20007;-84
2022/01/25 12:44:58;;;;;;;46.42;16.75;;;;;;;2.05;100.00;101430.59;12233344;19;20464;-84
2022/01/25 12:49:03;;;;;;;63.83;17.00;;;;;;;2.14;100.00;101429.69;12234702;19;20523;-84
2022/01/25 12:53:07;;;;;;;57.88;17.35;;;;;;;2.10;100.00;101439.16;12232619;19;20167;-84
2022/01/25 12:57:09;;;;;;;37.03;13.98;;;;;;;2.09;100.00;101434.75;12240354;19;20078;-84
2022/01/25 13:01:14;;;;;;;41.75;16.15;;;;;;;2.13;100.00;101432.56;12238323;19;20461;-85
2022/01/25 13:05:21;;;;;;;48.22;18.38;;;;;;;2.14;100.00;101421.53;12230204;19;20066;-84
2022/01/25 13:13:31;;;;;;;47.83;14.48;;;;;;;2.25;100.00;101415.00;12234927;19;20073;-84
2022/01/25 13:17:33;;;;;;;49.67;16.38;;;;;;;2.22;100.00;101416.16;12235619;19;20030;-83
2022/01/25 13:21:58;;;;;;;54.35;16.35;;;;;;;2.02;100.00;101420.91;12240633;19;20090;-83
2022/01/25 13:26:14;;;;;;;48.20;17.10;;;;;;;1.86;100.00;101415.31;12231056;19;20468;-84
2022/01/25 13:34:40;;;;;;;48.75;16.05;;;;;;;2.15;100.00;101412.38;12231276;19;20011;-83
2022/01/25 13:38:43;;;;;;;40.92;16.13;;;;;;;2.23;100.00;101397.97;12233061;19;20346;-83
2022/01/25 13:43:07;;;;;;;44.75;15.07;;;;;;;2.28;100.00;101404.66;12235761;19;20476;-84
2022/01/25 13:47:09;;;;;;;44.03;14.43;;;;;;;2.27;100.00;101383.06;12238559;19;20014;-84
2022/01/25 13:51:14;;;;;;;43.65;14.93;;;;;;;2.30;100.00;101385.47;12236289;19;20003;-83
2022/01/25 13:55:15;;;;;;;47.03;14.77;;;;;;;2.37;100.00;101382.97;12230483;19;20047;-83
2022/01/25 13:59:17;;;;;;;40.53;15.68;;;;;;;2.40;100.00;101379.94;12235277;19;20009;-84
2022/01/25 14:03:28;;;;;;;51.50;16.75;;;;;;;2.27;100.00;101380.34;12221227;19;20389;-84
2022/01/25 14:07:37;;;;;;;47.42;16.60;;;;;;;2.26;100.00;101384.06;12237626;19;20034;-82
2022/01/25 14:24:33;;;;;;;55.30;17.35;;;;;;;2.39;100.00;101394.56;12225317;19;20032;-83
2022/01/25 14:28:41;;;;;;;45.33;16.55;;;;;;;2.39;100.00;101400.84;12233743;19;20013;-84
2022/01/25 14:32:43;;;;;;;59.25;18.88;;;;;;;2.28;100.00;101411.97;12226591;19;20030;-84
2022/01/25 14:36:47;;;;;;;61.53;18.75;;;;;;;2.19;100.00;101405.59;12230708;19;20027;-83
2022/01/25 14:41:07;;;;;;;54.15;17.90;;;;;;;2.05;100.00;101407.00;12236870;19;20010;-83
2022/01/25 14:45:20;;;;;;;54.72;19.63;;;;;;;1.96;100.00;101398.91;12231341;19;20042;-83
2022/01/25 14:49:32;;;;;;;59.83;18.13;;;;;;;1.97;100.00;101395.19;12215265;19;20070;-83
2022/01/25 14:53:34;;;;;;;50.30;16.55;;;;;;;2.05;100.00;101401.56;12222661;19;20002;-83
2022/01/25 14:57:50;;;;;;;60.33;19.77;;;;;;;2.07;100.00;101395.97;12222293;19;20035;-83
2022/01/25 15:02:05;;;;;;;58.50;17.65;;;;;;;2.10;100.00;101389.38;12229791;19;20906;-83
2022/01/25 15:06:08;;;;;;;55.05;17.88;;;;;;;2.10;100.00;101394.81;12228808;19;20483;-82
2022/01/25 15:10:12;;;;;;;78.70;20.27;;;;;;;1.92;100.00;101397.53;12212710;19;20361;-85
2022/01/25 15:14:19;;;;;;;58.13;17.73;;;;;;;1.87;100.00;101394.41;12229921;19;20048;-83
2022/01/25 15:18:36;;;;;;;56.10;19.15;;;;;;;1.93;100.00;101400.06;12230346;19;20010;-83
2022/01/25 15:22:40;;;;;;;66.78;20.50;;;;;;;1.88;100.00;101399.69;12229339;19;20003;-83
2022/01/25 15:26:44;;;;;;;77.90;21.27;;;;;;;1.74;100.00;101409.22;12220185;19;20039;-84
2022/01/25 15:30:46;;;;;;;71.28;21.27;;;;;;;1.68;100.00;101407.13;12227269;19;20603;-85
2022/01/25 15:34:48;;;;;;;56.83;18.13;;;;;;;1.75;100.00;101404.63;12230400;19;20011;-84
2022/01/25 15:38:51;;;;;;;63.45;18.63;;;;;;;1.81;100.00;101402.19;12225252;19;20007;-84
2022/01/25 15:42:54;;;;;;;70.30;19.83;;;;;;;1.76;100.00;101401.78;12221574;19;20476;-83
2022/01/25 15:46:58;;;;;;;65.28;19.77;;;;;;;1.72;100.00;101407.66;12229357;19;20361;-84
2022/01/25 15:51:00;;;;;;;65.00;20.33;;;;;;;1.68;100.00;101407.13;12240899;19;20026;-84
2022/01/25 15:55:02;;;;;;;63.55;21.42;;;;;;;1.62;100.00;101404.16;12242524;19;20022;-85
2022/01/25 15:59:04;;;;;;;70.60;21.73;;;;;;;1.67;100.00;101396.44;12245847;19;20341;-84
2022/01/25 16:03:21;;;;;;;78.57;25.05;;;;;;;1.73;100.00;101396.66;12240593;19;20032;-84
2022/01/25 16:07:24;;;;;;;81.30;25.17;;;;;;;1.76;100.00;101398.22;12240335;19;20014;-84
2022/01/25 16:11:28;;;;;;;71.83;22.33;;;;;;;1.78;100.00;101401.63;12236153;19;20011;-83
2022/01/25 16:15:30;;;;;;;65.32;19.67;;;;;;;1.81;100.00;101402.19;12238715;19;20018;-84
2022/01/25 16:19:33;;;;;;;70.03;21.23;;;;;;;1.82;100.00;101405.75;12231998;19;20035;-85
2022/01/25 16:23:35;;;;;;;80.05;23.42;;;;;;;1.70;100.00;101413.28;12233192;19;20030;-84
2022/01/25 16:27:37;;;;;;;68.88;23.15;;;;;;;1.67;100.00;101415.44;12219811;19;20354;-84
2022/01/25 16:31:42;;;;;;;73.55;21.35;;;;;;;1.71;100.00;101422.28;12234385;19;20013;-84
2022/01/25 16:35:44;;;;;;;62.75;20.92;;;;;;;1.77;100.00;101417.06;12240245;19;20006;-84
2022/01/25 16:39:49;;;;;;;67.88;22.38;;;;;;;1.83;100.00;101421.91;12235635;19;20035;-84
2022/01/25 16:43:50;;;;;;;65.57;21.98;;;;;;;1.85;100.00;101413.59;12232592;19;20178;-84
2022/01/25 16:47:52;;;;;;;63.05;20.95;;;;;;;1.89;100.00;101423.16;12238769;19;20011;-84
2022/01/25 16:51:54;;;;;;;64.90;21.13;;;;;;;1.88;100.00;101418.72;12239479;19;20018;-83
2022/01/25 16:55:56;;;;;;;72.18;21.85;;;;;;;1.87;100.00;101417.00;12231397;19;20003;-84
2022/01/25 16:59:57;;;;;;;63.05;22.40;;;;;;;1.91;100.00;101417.56;12226643;19;20007;-83
2022/01/25 17:03:59;;;;;;;59.13;20.90;;;;;;;1.91;100.00;101415.69;12233384;19;20086;-84
2022/01/25 17:08:04;;;;;;;68.43;21.73;;;;;;;1.90;100.00;101413.97;12240039;19;20081;-84
2022/01/25 17:12:08;;;;;;;70.25;22.75;;;;;;;1.80;100.00;101405.91;12235255;19;20006;-84
2022/01/25 17:16:29;;;;;;;;;;;;;;;1.71;100.00;101411.41;12234041;19;20015;-84
2022/01/25 17:20:31;;;;;;;30.40;10.68;;;;;;;1.72;100.00;101413.09;12227336;19;19918;-85
2022/01/25 17:24:33;;;;;;;33.10;12.73;;;;;;;1.79;100.00;101404.19;12237055;19;20010;-84
2022/01/25 17:28:35;;;;;;;35.50;12.80;;;;;;;1.91;100.00;101409.41;12235793;19;20015;-85
2022/01/25 17:32:39;;;;;;;34.65;13.45;;;;;;;1.89;100.00;101403.28;12233269;19;20010;-85
2022/01/25 17:36:41;;;;;;;38.15;14.32;;;;;;;1.83;100.00;101413.75;12233730;19;20023;-84
2022/01/25 17:40:45;;;;;;;38.83;15.45;;;;;;;1.85;100.00;101421.75;12235427;19;20042;-84
2022/01/25 17:44:49;;;;;;;34.97;12.93;;;;;;;1.86;100.00;101409.88;12231919;19;20011;-84
2022/01/25 17:48:53;;;;;;;29.23;11.68;;;;;;;1.75;100.00;101415.50;12238625;19;20010;-84
2022/01/25 17:52:55;;;;;;;34.33;13.48;;;;;;;1.76;100.00;101409.09;12222561;19;20354;-81
2022/01/25 17:56:57;;;;;;;35.22;13.45;;;;;;;1.73;100.00;101420.25;12234066;19;20424;-82
2022/01/25 18:00:58;;;;;;;30.77;12.53;;;;;;;1.73;100.00;101412.13;12233543;19;20009;-83
2022/01/25 18:05:00;;;;;;;34.23;13.47;;;;;;;1.66;100.00;101406.41;12227183;19;20010;-83
2022/01/25 18:09:06;;;;;;;36.35;16.20;;;;;;;1.65;100.00;101409.28;12227077;19;20034;-83
2022/01/25 18:13:08;;;;;;;35.55;12.68;;;;;;;1.73;100.00;101410.25;12230206;19;20010;-83
2022/01/25 18:17:15;;;;;;;30.52;12.80;;;;;;;1.77;100.00;101408.91;12226984;19;20014;-82
2022/01/25 18:21:16;;;;;;;35.45;13.13;;;;;;;1.86;100.00;101414.44;12222639;19;20014;-83
2022/01/25 18:25:39;;;;;;;38.92;12.88;;;;;;;1.92;100.00;101408.41;12228975;19;20110;-83
2022/01/25 18:29:41;;;;;;;;;;;;;;;1.91;100.00;101412.97;12234103;19;20046;-82
2022/01/25 18:33:43;;;;;;;31.52;12.63;;;;;;;1.90;100.00;101415.84;12229440;19;19947;-83
2022/01/25 18:37:44;;;;;;;40.08;16.33;;;;;;;1.88;100.00;101424.16;12227426;19;20011;-82
2022/01/25 18:41:49;;;;;;;37.95;13.52;;;;;;;1.80;100.00;101416.75;12229862;19;20003;-82
2022/01/25 18:45:53;;;;;;;34.55;15.05;;;;;;;1.81;100.00;101407.63;12229902;19;20019;-84
2022/01/25 18:49:54;;;;;;;38.25;15.38;;;;;;;1.82;100.00;101420.19;12230423;19;20058;-83
2022/01/25 18:53:57;;;;;;;36.42;14.70;;;;;;;1.86;100.00;101409.88;12232970;19;20030;-84
2022/01/25 18:57:59;;;;;;;30.92;13.85;;;;;;;1.91;100.00;101421.13;12236441;19;20002;-81
2022/01/25 19:02:12;;;;;;;36.17;15.55;;;;;;;1.95;100.00;101410.81;12229980;19;20007;-82
2022/01/25 19:06:14;;;;;;;39.78;15.45;;;;;;;1.97;100.00;101411.50;12228632;19;20007;-82
2022/01/25 19:10:20;;;;;;;41.80;16.02;;;;;;;1.99;100.00;101410.34;12230224;19;20034;-83
2022/01/25 19:19:36;;;;;;;36.60;15.68;;;;;;;2.02;100.00;101403.72;12226885;19;20023;-83
2022/01/25 19:23:37;;;;;;;38.20;15.90;;;;;;;2.02;100.00;101401.88;12220941;19;20011;-82
2022/01/25 19:27:49;;;;;;;36.08;16.02;;;;;;;2.05;100.00;101396.13;12232299;19;20035;-82
2022/01/25 19:31:51;;;;;;;34.58;15.32;;;;;;;2.08;100.00;101397.66;12240215;19;20039;-83
2022/01/25 19:35:53;;;;;;;44.25;15.60;;;;;;;2.06;100.00;101391.53;12234425;19;20021;-83
2022/01/25 19:39:57;;;;;;;38.50;15.50;;;;;;;2.05;100.00;101396.13;12240986;19;20077;-82
2022/01/25 19:43:58;;;;;;;41.67;16.35;;;;;;;2.07;100.00;101387.81;12232401;19;20006;-83
2022/01/25 19:48:00;;;;;;;40.97;16.73;;;;;;;2.07;100.00;101381.53;12234917;19;20021;-82
2022/01/25 19:52:10;;;;;;;40.35;15.57;;;;;;;2.08;100.00;101385.94;12233441;19;20007;-83
2022/01/25 19:56:12;;;;;;;41.25;15.40;;;;;;;2.07;100.00;101387.81;12228280;19;20010;-83
2022/01/25 20:00:16;;;;;;;39.00;17.17;;;;;;;2.06;100.00;101399.72;12237073;19;20336;-82
2022/01/25 20:04:18;;;;;;;51.35;21.65;;;;;;;2.05;100.00;101397.97;12231943;19;20018;-84
2022/01/25 20:08:21;;;;;;;60.45;24.23;;;;;;;2.07;100.00;101401.41;12238210;19;20030;-83
2022/01/25 20:12:24;;;;;;;57.53;21.42;;;;;;;2.07;100.00;101393.25;12235104;19;20030;-82
2022/01/25 20:16:37;;;;;;;43.63;17.02;;;;;;;2.09;100.00;101391.25;12230700;19;20039;-82
2022/01/25 20:20:54;;;;;;;44.90;16.88;;;;;;;2.08;100.00;101403.09;12226068;19;20030;-83
2022/01/25 20:25:13;;;;;;;37.50;16.25;;;;;;;2.07;100.00;101406.00;12220690;19;20011;-83
2022/01/25 20:29:29;;;;;;;32.22;13.80;;;;;;;2.06;100.00;101413.31;12227187;19;20006;-82
2022/01/25 20:33:34;;;;;;;37.08;15.40;;;;;;;2.02;100.00;101415.47;12235400;19;20352;-83